createdAt,value
2018-12-01T00:01:17.744Z,-2.07
2018-12-01T00:03:51.013Z,-2.08
2018-12-01T00:06:20.920Z,-2.15
2018-12-01T00:08:51.843Z,-2.14
2018-12-01T00:11:23.926Z,-2.23
2018-12-01T00:13:55.872Z,-2.20
2018-12-01T00:16:26.763Z,-2.26
2018-12-01T00:18:56.920Z,-2.31
2018-12-01T00:21:27.090Z,-2.23
2018-12-01T00:23:57.996Z,-2.16
2018-12-01T00:26:29.827Z,-2.24
2018-12-01T00:29:01.840Z,-2.27
2018-12-01T00:31:32.894Z,-2.23
2018-12-01T00:34:02.691Z,-2.16
2018-12-01T00:36:36.788Z,-2.20
2018-12-01T00:39:08.191Z,-2.16
2018-12-01T00:41:37.964Z,-2.17
2018-12-01T00:44:09.080Z,-2.14
2018-12-01T00:46:39.017Z,-2.09
2018-12-01T00:49:10.033Z,-2.10
2018-12-01T00:51:40.500Z,-2.10
2018-12-01T00:54:11.756Z,-2.16
2018-12-01T00:56:41.975Z,-2.13
2018-12-01T00:59:13.107Z,-2.20
2018-12-01T01:01:43.176Z,-2.20
2018-12-01T01:04:13.704Z,-2.16
2018-12-01T01:06:44.100Z,-2.20
2018-12-01T01:09:14.831Z,-2.14
2018-12-01T01:11:45.134Z,-2.23
2018-12-01T01:14:15.263Z,-2.35
2018-12-01T01:16:46.331Z,-2.24
2018-12-01T01:19:16.760Z,-2.26
2018-12-01T01:21:48.113Z,-2.21
2018-12-01T01:24:17.944Z,-2.18
2018-12-01T01:26:48.310Z,-2.24
2018-12-01T01:29:18.305Z,-2.32
2018-12-01T01:31:52.230Z,-2.28
2018-12-01T01:34:24.240Z,-2.25
2018-12-01T01:36:56.124Z,-2.20
2018-12-01T01:39:27.380Z,-2.25
2018-12-01T01:41:57.254Z,-2.23
2018-12-01T01:44:28.338Z,-2.32
2018-12-01T01:46:58.150Z,-2.30
2018-12-01T01:49:29.419Z,-2.13
2018-12-01T01:52:00.261Z,-2.20
2018-12-01T01:54:30.489Z,-2.23
2018-12-01T01:57:01.311Z,-2.25
2018-12-01T01:59:31.369Z,-2.20
2018-12-01T02:02:03.611Z,-2.23
2018-12-01T02:04:35.353Z,-2.15
2018-12-01T02:07:07.373Z,-2.14
2018-12-01T02:09:37.277Z,-2.14
2018-12-01T02:12:08.289Z,-2.24
2018-12-01T02:14:39.544Z,-2.12
2018-12-01T02:17:12.179Z,-2.11
2018-12-01T02:19:46.442Z,-2.15
2018-12-01T02:22:16.954Z,-2.07
2018-12-01T02:24:47.303Z,-2.20
2018-12-01T02:27:17.836Z,-2.28
2018-12-01T02:29:48.260Z,-2.22
2018-12-01T02:32:18.505Z,-2.27
2018-12-01T02:34:49.370Z,-2.22
2018-12-01T02:37:19.544Z,-2.14
2018-12-01T02:39:50.324Z,-2.22
2018-12-01T02:42:20.406Z,-2.23
2018-12-01T02:45:03.209Z,-2.31
2018-12-01T02:47:34.243Z,-2.33
2018-12-01T02:50:05.767Z,-2.32
2018-12-01T02:52:36.598Z,-2.17
2018-12-01T02:55:07.277Z,-2.11
2018-12-01T02:57:38.097Z,-2.15
2018-12-01T03:00:11.302Z,-2.16
2018-12-01T03:02:43.664Z,-2.13
2018-12-01T03:05:14.062Z,-2.20
2018-12-01T03:07:44.805Z,-2.21
2018-12-01T03:10:18.099Z,-2.08
2018-12-01T03:12:48.584Z,-2.04
2018-12-01T03:15:20.773Z,-2.07
2018-12-01T03:17:52.851Z,-2.09
2018-12-01T03:20:24.734Z,-2.10
2018-12-01T03:22:57.467Z,-2.07
2018-12-01T03:25:27.747Z,-2.04
2018-12-01T03:27:59.804Z,-2.00
2018-12-01T03:30:31.799Z,-2.15
2018-12-01T03:33:01.708Z,-2.16
2018-12-01T03:35:32.779Z,-2.22
2018-12-01T03:38:08.154Z,-2.08
2018-12-01T03:40:42.744Z,-2.11
2018-12-01T03:43:12.755Z,-2.08
2018-12-01T03:45:42.251Z,-2.13
2018-12-01T03:48:12.777Z,-2.19
2018-12-01T03:50:43.012Z,-2.10
2018-12-01T03:53:14.024Z,-2.05
2018-12-01T03:55:43.836Z,-2.04
2018-12-01T03:58:14.895Z,-2.04
2018-12-01T04:00:44.903Z,-2.12
2018-12-01T04:03:15.938Z,-2.12
2018-12-01T04:05:45.873Z,-2.14
2018-12-01T04:08:16.770Z,-2.22
2018-12-01T04:10:46.963Z,-2.15
2018-12-01T04:13:18.359Z,-2.17
2018-12-01T04:15:49.108Z,-2.20
2018-12-01T04:18:18.920Z,-2.18
2018-12-01T04:20:50.082Z,-2.13
2018-12-01T04:23:20.579Z,-2.10
2018-12-01T04:25:50.992Z,-2.11
2018-12-01T04:28:20.587Z,-2.08
2018-12-01T04:30:52.100Z,-2.15
2018-12-01T04:33:23.971Z,-2.17
2018-12-01T04:35:53.996Z,-2.10
2018-12-01T04:38:23.961Z,-2.14
2018-12-01T04:40:55.055Z,-2.14
2018-12-01T04:43:27.065Z,-2.10
2018-12-01T04:45:57.246Z,-2.15
2018-12-01T04:48:27.428Z,-2.08
2018-12-01T04:50:58.149Z,-2.04
2018-12-01T04:53:28.987Z,-2.09
2018-12-01T04:55:59.212Z,-2.14
2018-12-01T04:58:30.329Z,-2.09
2018-12-01T05:01:00.034Z,-2.14
2018-12-01T05:03:31.152Z,-2.08
2018-12-01T05:06:01.322Z,-2.08
2018-12-01T05:08:32.316Z,-2.11
2018-12-01T05:11:02.276Z,-2.08
2018-12-01T05:13:33.243Z,-2.07
2018-12-01T05:16:03.348Z,-2.07
2018-12-01T05:18:33.228Z,-1.95
2018-12-01T05:21:04.545Z,-2.07
2018-12-01T05:23:35.387Z,-2.06
2018-12-01T05:26:07.171Z,-2.13
2018-12-01T05:28:37.370Z,-2.14
2018-12-01T05:31:07.455Z,-2.15
2018-12-01T05:33:37.407Z,-2.09
2018-12-01T05:36:09.266Z,-2.06
2018-12-01T05:38:40.623Z,-2.06
2018-12-01T05:41:12.374Z,-2.02
2018-12-01T05:43:46.345Z,-2.05
2018-12-01T05:46:17.587Z,-2.07
2018-12-01T05:48:47.601Z,-2.08
2018-12-01T05:51:18.619Z,-2.07
2018-12-01T05:53:49.812Z,-2.16
2018-12-01T05:56:20.386Z,-2.13
2018-12-01T05:58:50.504Z,-2.12
2018-12-01T06:01:20.997Z,-2.08
2018-12-01T06:03:52.643Z,-2.00
2018-12-01T06:06:24.336Z,-2.10
2018-12-01T06:08:56.283Z,-2.11
2018-12-01T06:11:27.132Z,-2.13
2018-12-01T06:13:57.777Z,-2.12
2018-12-01T06:16:27.727Z,-2.09
2018-12-01T06:18:58.584Z,-2.03
2018-12-01T06:21:29.246Z,-2.01
2018-12-01T06:23:59.577Z,-2.00
2018-12-01T06:26:30.162Z,-2.02
2018-12-01T06:29:00.708Z,-1.91
2018-12-01T06:31:30.944Z,-1.98
2018-12-01T06:34:01.602Z,-2.01
2018-12-01T06:36:35.298Z,-2.02
2018-12-01T06:39:07.702Z,-1.94
2018-12-01T06:41:39.665Z,-1.93
2018-12-01T06:44:11.631Z,-1.91
2018-12-01T06:46:44.723Z,-1.78
2018-12-01T06:49:14.717Z,-1.90
2018-12-01T06:51:44.646Z,-1.91
2018-12-01T06:54:15.705Z,-1.82
2018-12-01T06:56:46.709Z,-1.70
2018-12-01T06:59:16.575Z,-1.70
2018-12-01T07:01:47.789Z,-1.71
2018-12-01T07:04:18.659Z,-1.78
2018-12-01T07:06:48.647Z,-1.75
2018-12-01T07:09:19.720Z,-1.75
2018-12-01T07:11:51.832Z,-1.72
2018-12-01T07:14:21.424Z,-1.65
2018-12-01T07:16:52.662Z,-1.65
2018-12-01T07:19:24.665Z,-1.66
2018-12-01T07:21:56.659Z,-1.53
2018-12-01T07:24:27.916Z,-1.56
2018-12-01T07:26:57.860Z,-1.61
2018-12-01T07:29:27.916Z,-1.61
2018-12-01T07:31:58.986Z,-1.51
2018-12-01T07:34:31.071Z,-1.48
2018-12-01T07:37:02.862Z,-1.43
2018-12-01T07:39:33.555Z,-1.33
2018-12-01T07:42:03.921Z,-1.35
2018-12-01T07:44:34.548Z,-1.29
2018-12-01T07:47:04.878Z,-1.25
2018-12-01T07:49:35.671Z,-1.18
2018-12-01T07:52:06.378Z,-1.04
2018-12-01T07:54:36.772Z,-0.91
2018-12-01T07:57:07.776Z,-0.70
2018-12-01T07:59:38.162Z,-0.51
2018-12-01T08:02:08.836Z,-0.38
2018-12-01T08:04:39.033Z,-0.29
2018-12-01T08:07:10.104Z,-0.23
2018-12-01T08:09:40.923Z,-0.18
2018-12-01T08:12:11.228Z,-0.09
2018-12-01T08:14:42.027Z,-0.20
2018-12-01T08:17:13.020Z,-0.26
2018-12-01T08:19:43.038Z,-0.30
2018-12-01T08:22:14.097Z,-0.36
2018-12-01T08:24:45.167Z,-0.41
2018-12-01T08:27:16.017Z,-0.45
2018-12-01T08:29:46.808Z,-0.37
2018-12-01T08:32:17.133Z,-0.45
2018-12-01T08:34:47.941Z,-0.48
2018-12-01T08:37:19.079Z,-0.43
2018-12-01T08:39:49.226Z,-0.39
2018-12-01T08:42:19.965Z,-0.31
2018-12-01T08:44:50.209Z,-0.21
2018-12-01T08:47:21.228Z,-0.16
2018-12-01T08:49:51.483Z,-0.15
2018-12-01T08:52:22.029Z,-0.22
2018-12-01T08:54:53.224Z,-0.22
2018-12-01T08:57:24.130Z,-0.21
2018-12-01T08:59:54.049Z,-0.27
2018-12-01T09:02:24.083Z,-0.25
2018-12-01T09:04:55.105Z,-0.27
2018-12-01T09:07:25.783Z,-0.23
2018-12-01T09:09:56.167Z,-0.15
2018-12-01T09:12:27.063Z,-0.21
2018-12-01T09:14:57.270Z,-0.21
2018-12-01T09:17:27.252Z,-0.30
2018-12-01T09:19:59.100Z,-0.25
2018-12-01T09:22:29.655Z,-0.28
2018-12-01T09:25:00.232Z,-0.30
2018-12-01T09:27:30.322Z,-0.22
2018-12-01T09:30:02.161Z,-0.13
2018-12-01T09:32:32.330Z,-0.08
2018-12-01T09:35:02.495Z,0.02
2018-12-01T09:37:33.501Z,0.05
2018-12-01T09:40:04.379Z,0.16
2018-12-01T09:42:34.911Z,0.24
2018-12-01T09:45:08.025Z,0.24
2018-12-01T09:47:43.321Z,0.34
2018-12-01T09:50:15.996Z,0.40
2018-12-01T09:52:48.484Z,0.60
2018-12-01T09:55:22.504Z,0.66
2018-12-01T09:57:53.323Z,0.69
2018-12-01T10:00:26.749Z,0.71
2018-12-01T10:02:57.733Z,0.62
2018-12-01T10:05:27.406Z,0.61
2018-12-01T10:07:58.733Z,0.61
2018-12-01T10:10:28.757Z,0.55
2018-12-01T10:12:59.610Z,0.60
2018-12-01T10:15:30.899Z,0.61
2018-12-01T10:18:00.566Z,0.48
2018-12-01T10:20:34.418Z,0.53
2018-12-01T10:23:08.817Z,0.58
2018-12-01T10:25:40.717Z,0.44
2018-12-01T10:28:11.889Z,0.55
2018-12-01T10:30:42.844Z,0.38
2018-12-01T10:33:15.182Z,0.38
2018-12-01T10:35:46.639Z,0.38
2018-12-01T10:38:17.849Z,0.37
2018-12-01T10:40:47.800Z,0.25
2018-12-01T10:43:18.605Z,0.31
2018-12-01T10:45:49.471Z,0.34
2018-12-01T10:48:19.611Z,0.34
2018-12-01T10:50:50.707Z,0.35
2018-12-01T10:53:21.160Z,0.42
2018-12-01T10:55:52.816Z,0.51
2018-12-01T10:58:23.300Z,0.53
2018-12-01T11:00:58.801Z,0.57
2018-12-01T11:03:36.496Z,0.49
2018-12-01T11:06:12.400Z,0.51
2018-12-01T11:08:43.816Z,0.50
2018-12-01T11:11:14.861Z,0.51
2018-12-01T11:13:44.884Z,0.44
2018-12-01T11:16:16.589Z,0.36
2018-12-01T11:18:47.895Z,0.37
2018-12-01T11:21:19.734Z,0.32
2018-12-01T11:23:50.936Z,0.34
2018-12-01T11:26:20.708Z,0.23
2018-12-01T11:28:51.735Z,0.25
2018-12-01T11:31:21.350Z,0.26
2018-12-01T11:33:52.908Z,0.35
2018-12-01T11:36:24.821Z,0.34
2018-12-01T11:38:56.995Z,0.33
2018-12-01T11:41:27.792Z,0.35
2018-12-01T11:43:59.010Z,0.23
2018-12-01T11:46:31.004Z,0.21
2018-12-01T11:49:03.024Z,0.13
2018-12-01T11:51:34.092Z,0.15
2018-12-01T11:54:05.311Z,0.10
2018-12-01T11:56:35.095Z,0.06
2018-12-01T11:59:06.984Z,0.05
2018-12-01T12:01:37.152Z,0.08
2018-12-01T12:04:08.072Z,0.01
2018-12-01T12:06:38.783Z,0.12
2018-12-01T12:09:14.198Z,0.14
2018-12-01T12:11:46.066Z,0.08
2018-12-01T12:14:15.973Z,0.00
2018-12-01T12:16:46.346Z,-0.05
2018-12-01T12:19:17.087Z,-0.07
2018-12-01T12:21:48.962Z,-0.06
2018-12-01T12:24:21.423Z,-0.14
2018-12-01T12:26:52.165Z,-0.21
2018-12-01T12:29:21.850Z,-0.15
2018-12-01T12:31:54.422Z,-0.15
2018-12-01T12:34:25.069Z,-0.17
2018-12-01T12:36:57.131Z,-0.07
2018-12-01T12:39:28.177Z,-0.11
2018-12-01T12:41:58.208Z,-0.14
2018-12-01T12:44:28.231Z,-0.13
2018-12-01T12:47:00.179Z,-0.19
2018-12-01T12:49:31.228Z,-0.15
2018-12-01T12:52:01.319Z,-0.13
2018-12-01T12:54:32.378Z,-0.08
2018-12-01T12:57:02.410Z,-0.12
2018-12-01T12:59:33.207Z,-0.17
2018-12-01T13:02:04.260Z,-0.09
2018-12-01T13:04:34.348Z,-0.09
2018-12-01T13:07:04.156Z,-0.09
2018-12-01T13:09:36.181Z,-0.11
2018-12-01T13:12:06.996Z,-0.08
2018-12-01T13:14:37.433Z,-0.09
2018-12-01T13:17:08.390Z,-0.14
2018-12-01T13:19:40.378Z,-0.17
2018-12-01T13:22:10.368Z,-0.20
2018-12-01T13:24:41.298Z,-0.13
2018-12-01T13:27:11.424Z,-0.13
2018-12-01T13:29:41.636Z,-0.06
2018-12-01T13:32:12.267Z,-0.09
2018-12-01T13:34:42.455Z,-0.13
2018-12-01T13:37:12.447Z,-0.08
2018-12-01T13:39:43.636Z,-0.08
2018-12-01T13:42:14.536Z,-0.07
2018-12-01T13:44:44.369Z,-0.03
2018-12-01T13:47:15.550Z,0.00
2018-12-01T13:49:45.543Z,-0.02
2018-12-01T13:52:16.588Z,-0.08
2018-12-01T13:54:46.522Z,-0.06
2018-12-01T13:57:17.591Z,-0.07
2018-12-01T13:59:48.459Z,-0.09
2018-12-01T14:02:18.523Z,-0.09
2018-12-01T14:04:49.750Z,-0.08
2018-12-01T14:07:20.596Z,-0.14
2018-12-01T14:09:52.668Z,-0.12
2018-12-01T14:12:22.187Z,-0.19
2018-12-01T14:14:58.533Z,-0.23
2018-12-01T14:17:29.135Z,-0.19
2018-12-01T14:20:00.165Z,-0.17
2018-12-01T14:22:30.689Z,-0.16
2018-12-01T14:25:01.639Z,-0.17
2018-12-01T14:27:32.294Z,-0.19
2018-12-01T14:30:03.324Z,-0.19
2018-12-01T14:32:33.729Z,-0.15
2018-12-01T14:35:04.568Z,-0.14
2018-12-01T14:37:34.787Z,-0.19
2018-12-01T14:40:05.885Z,-0.17
2018-12-01T14:42:36.012Z,-0.13
2018-12-01T14:45:08.623Z,-0.20
2018-12-01T14:47:39.758Z,-0.24
2018-12-01T14:50:12.753Z,-0.26
2018-12-01T14:52:44.571Z,-0.27
2018-12-01T14:55:16.044Z,-0.27
2018-12-01T14:57:48.188Z,-0.26
2018-12-01T15:00:25.328Z,-0.24
2018-12-01T15:02:55.865Z,-0.26
2018-12-01T15:05:26.452Z,-0.27
2018-12-01T15:07:56.027Z,-0.27
2018-12-01T15:10:27.668Z,-0.25
2018-12-01T15:12:57.209Z,-0.25
2018-12-01T15:15:33.819Z,-0.29
2018-12-01T15:18:04.000Z,-0.32
2018-12-01T15:20:35.133Z,-0.33
2018-12-01T15:23:07.137Z,-0.29
2018-12-01T15:25:40.027Z,-0.31
2018-12-01T15:28:09.915Z,-0.33
2018-12-01T15:30:41.343Z,-0.28
2018-12-01T15:33:13.228Z,-0.29
2018-12-01T15:35:46.140Z,-0.27
2018-12-01T15:38:18.005Z,-0.24
2018-12-01T15:40:50.409Z,-0.27
2018-12-01T15:43:21.937Z,-0.31
2018-12-01T15:45:53.083Z,-0.35
2018-12-01T15:48:24.980Z,-0.36
2018-12-01T15:50:57.033Z,-0.32
2018-12-01T15:53:28.076Z,-0.32
2018-12-01T15:55:58.137Z,-0.29
2018-12-01T15:58:29.059Z,-0.28
2018-12-01T16:00:59.350Z,-0.26
2018-12-01T16:03:30.120Z,-0.18
2018-12-01T16:06:00.174Z,-0.16
2018-12-01T16:08:31.317Z,-0.18
2018-12-01T16:11:01.065Z,-0.17
2018-12-01T16:13:33.088Z,-0.16
2018-12-01T16:16:06.469Z,-0.16
2018-12-01T16:18:36.375Z,-0.15
2018-12-01T16:21:07.361Z,-0.16
2018-12-01T16:23:37.885Z,-0.19
2018-12-01T16:26:10.286Z,-0.19
2018-12-01T16:28:40.188Z,-0.12
2018-12-01T16:31:11.297Z,-0.17
2018-12-01T16:33:42.292Z,-0.12
2018-12-01T16:36:12.426Z,-0.19
2018-12-01T16:38:45.580Z,-0.21
2018-12-01T16:41:21.393Z,-0.21
2018-12-01T16:43:53.330Z,-0.22
2018-12-01T16:46:26.240Z,-0.21
2018-12-01T16:48:57.381Z,-0.19
2018-12-01T16:51:29.335Z,-0.22
2018-12-01T16:54:01.358Z,-0.07
2018-12-01T16:56:31.600Z,-0.12
2018-12-01T16:59:03.326Z,-0.01
2018-12-01T17:01:35.529Z,-0.08
2018-12-01T17:04:07.422Z,-0.07
2018-12-01T17:06:37.641Z,-0.03
2018-12-01T17:09:09.333Z,0.04
2018-12-01T17:11:39.439Z,-0.09
2018-12-01T17:14:09.545Z,-0.09
2018-12-01T17:16:40.539Z,-0.14
2018-12-01T17:19:11.404Z,-0.13
2018-12-01T17:21:42.167Z,-0.12
2018-12-01T17:24:12.173Z,-0.11
2018-12-01T17:26:42.508Z,-0.16
2018-12-01T17:29:13.157Z,-0.20
2018-12-01T17:31:43.562Z,-0.14
2018-12-01T17:34:13.716Z,-0.19
2018-12-01T17:36:44.776Z,-0.08
2018-12-01T17:39:15.416Z,-0.08
2018-12-01T17:41:45.469Z,-0.08
2018-12-01T17:44:15.698Z,-0.16
2018-12-01T17:46:45.868Z,-0.18
2018-12-01T17:49:16.822Z,-0.14
2018-12-01T17:51:47.870Z,-0.18
2018-12-01T17:54:18.557Z,-0.17
2018-12-01T17:56:48.461Z,-0.19
2018-12-01T17:59:19.054Z,-0.14
2018-12-01T18:01:49.515Z,-0.15
2018-12-01T18:04:19.832Z,-0.11
2018-12-01T18:06:50.944Z,-0.17
2018-12-01T18:09:20.698Z,-0.13
2018-12-01T18:11:51.679Z,-0.17
2018-12-01T18:14:22.127Z,-0.22
2018-12-01T18:16:52.770Z,-0.18
2018-12-01T18:19:22.405Z,-0.19
2018-12-01T18:21:54.843Z,-0.23
2018-12-01T18:24:30.718Z,-0.24
2018-12-01T18:27:01.765Z,-0.17
2018-12-01T18:29:32.897Z,-0.19
2018-12-01T18:32:05.000Z,-0.17
2018-12-01T18:34:36.874Z,-0.10
2018-12-01T18:37:07.941Z,-0.11
2018-12-01T18:39:38.730Z,-0.22
2018-12-01T18:42:09.114Z,-0.24
2018-12-01T18:44:39.870Z,-0.32
2018-12-01T18:47:10.004Z,-0.31
2018-12-01T18:49:40.030Z,-0.31
2018-12-01T18:52:10.828Z,-0.27
2018-12-01T18:54:40.948Z,-0.31
2018-12-01T18:57:11.978Z,-0.33
2018-12-01T19:00:00.543Z,-0.32
2018-12-01T19:02:30.296Z,-0.33
2018-12-01T19:05:00.940Z,-0.24
2018-12-01T19:07:31.351Z,-0.24
2018-12-01T19:10:01.818Z,-0.27
2018-12-01T19:12:34.265Z,-0.15
2018-12-01T19:15:13.226Z,-0.18
2018-12-01T19:17:47.460Z,-0.21
2018-12-01T19:20:19.974Z,-0.17
2018-12-01T19:22:50.491Z,-0.20
2018-12-01T19:25:22.065Z,-0.24
2018-12-01T19:27:59.759Z,-0.13
2018-12-01T19:30:34.148Z,-0.17
2018-12-01T19:33:08.091Z,-0.19
2018-12-01T19:35:39.281Z,-0.18
2018-12-01T19:38:11.105Z,-0.19
2018-12-01T19:40:42.496Z,-0.23
2018-12-01T19:43:13.110Z,-0.18
2018-12-01T19:45:43.765Z,-0.28
2018-12-01T19:48:14.018Z,-0.34
2018-12-01T19:50:44.199Z,-0.38
2018-12-01T19:53:17.029Z,-0.45
2018-12-01T19:55:47.932Z,-0.46
2018-12-01T19:58:19.890Z,-0.59
2018-12-01T20:00:53.386Z,-0.68
2018-12-01T20:03:24.073Z,-0.77
2018-12-01T20:05:55.164Z,-0.97
2018-12-01T20:08:25.568Z,-1.06
2018-12-01T20:11:01.572Z,-1.09
2018-12-01T20:13:40.403Z,-1.10
2018-12-01T20:16:34.230Z,-1.14
2018-12-01T20:19:07.060Z,-1.21
2018-12-01T20:21:37.168Z,-1.24
2018-12-01T20:24:08.871Z,-1.31
2018-12-01T20:26:42.223Z,-1.37
2018-12-01T20:29:14.306Z,-1.50
2018-12-01T20:31:45.373Z,-1.53
2018-12-01T20:34:15.821Z,-1.55
2018-12-01T20:37:03.200Z,-1.63
2018-12-01T20:39:38.546Z,-1.71
2018-12-01T20:42:08.390Z,-1.77
2018-12-01T20:44:40.055Z,-1.79
2018-12-01T20:47:13.515Z,-1.90
2018-12-01T20:49:43.251Z,-1.98
2018-12-01T20:52:14.299Z,-2.03
2018-12-01T20:54:46.102Z,-2.11
2018-12-01T20:57:20.769Z,-2.16
2018-12-01T20:59:51.453Z,-2.24
2018-12-01T21:02:22.133Z,-2.26
2018-12-01T21:04:53.453Z,-2.21
2018-12-01T21:07:23.085Z,-2.31
2018-12-01T21:09:54.590Z,-2.31
2018-12-01T21:12:25.603Z,-2.43
2018-12-01T21:14:56.463Z,-2.51
2018-12-01T21:17:28.688Z,-2.52
2018-12-01T21:20:01.650Z,-2.58
2018-12-01T21:22:31.632Z,-2.69
2018-12-01T21:25:02.473Z,-2.71
2018-12-01T21:27:34.494Z,-2.72
2018-12-01T21:30:14.530Z,-2.75
2018-12-01T21:32:45.286Z,-2.74
2018-12-01T21:35:15.613Z,-2.67
2018-12-01T21:37:45.574Z,-2.62
2018-12-01T21:40:17.960Z,-2.70
2018-12-01T21:42:49.613Z,-2.70
2018-12-01T21:45:21.363Z,-2.59
2018-12-01T21:47:53.472Z,-2.66
2018-12-01T21:50:25.619Z,-2.68
2018-12-01T21:52:58.603Z,-2.69
2018-12-01T21:55:28.386Z,-2.66
2018-12-01T21:57:58.883Z,-2.55
2018-12-01T22:00:30.816Z,-2.56
2018-12-01T22:03:06.393Z,-2.53
2018-12-01T22:05:44.385Z,-2.58
2018-12-01T22:08:17.075Z,-2.60
2018-12-01T22:10:49.367Z,-2.63
2018-12-01T22:13:25.609Z,-2.75
2018-12-01T22:15:56.808Z,-2.72
2018-12-01T22:18:30.120Z,-2.68
2018-12-01T22:21:02.715Z,-2.75
2018-12-01T22:23:34.703Z,-2.81
2018-12-01T22:26:06.444Z,-2.82
2018-12-01T22:28:36.564Z,-2.90
2018-12-01T22:31:06.995Z,-2.79
2018-12-01T22:33:37.925Z,-2.82
2018-12-01T22:36:08.047Z,-2.85
2018-12-01T22:38:38.715Z,-2.87
2018-12-01T22:41:10.392Z,-2.94
2018-12-01T22:43:41.249Z,-2.95
2018-12-01T22:46:11.270Z,-2.94
2018-12-01T22:48:41.607Z,-2.99
2018-12-01T22:51:11.981Z,-2.96
2018-12-01T22:53:42.289Z,-3.01
2018-12-01T22:56:12.856Z,-3.04
2018-12-01T22:58:43.399Z,-3.07
2018-12-01T23:01:14.103Z,-3.05
2018-12-01T23:03:45.199Z,-3.08
2018-12-01T23:06:14.922Z,-3.13
2018-12-01T23:08:45.090Z,-3.16
2018-12-01T23:11:18.865Z,-3.19
2018-12-01T23:13:49.715Z,-3.14
2018-12-01T23:16:21.998Z,-3.15
2018-12-01T23:18:54.014Z,-3.19
2018-12-01T23:21:26.087Z,-3.02
2018-12-01T23:23:58.076Z,-3.08
2018-12-01T23:26:28.921Z,-3.09
2018-12-01T23:28:59.100Z,-3.11
2018-12-01T23:31:29.965Z,-3.03
2018-12-01T23:34:00.943Z,-3.05
2018-12-01T23:36:31.984Z,-2.99
2018-12-01T23:39:04.752Z,-3.06
2018-12-01T23:41:37.912Z,-3.09
2018-12-01T23:44:10.492Z,-3.17
2018-12-01T23:46:42.080Z,-3.14
2018-12-01T23:49:13.129Z,-3.23
2018-12-01T23:51:43.160Z,-3.22
2018-12-01T23:54:14.215Z,-3.32
2018-12-01T23:56:45.093Z,-3.30
2018-12-01T23:59:16.208Z,-3.24
